Time;durP1;ratioP1;P1;durP2;ratioP2;P2;SDS_P1;SDS_P2;PMS_P1;PMS_P2;Temp;Humidity;BMP_temperature;BMP_pressure;BME280_temperature;BME280_humidity;BME280_pressure;Samples;Min_cycle;Max_cycle;Signal;HPM_P1;HPM_P2
2022/02/12 00:01:53;;;;;;;12.77;8.93;;;;;;;-0.25;100.00;95408.78;5026514;28;20022;-76
2022/02/12 00:04:19;;;;;;;19.58;10.70;;;;;;;-0.24;100.00;95421.44;5027680;28;20091;-76
2022/02/12 00:06:44;;;;;;;22.42;15.90;;;;;;;-0.24;100.00;95418.06;5025004;28;20028;-76
2022/02/12 00:09:09;;;;;;;15.77;9.27;;;;;;;-0.20;100.00;95411.88;5027798;28;20532;-76
2022/02/12 00:11:35;;;;;;;12.13;8.50;;;;;;;-0.05;100.00;95414.28;5025092;28;20033;-76
2022/02/12 00:14:00;;;;;;;17.40;8.48;;;;;;;-0.20;100.00;95422.88;5027256;28;20064;-76
2022/02/12 00:16:26;;;;;;;14.15;9.88;;;;;;;-0.04;100.00;95431.22;5027463;28;20452;-76
2022/02/12 00:18:51;;;;;;;21.58;12.98;;;;;;;-0.28;100.00;95430.16;5025761;28;20021;-76
2022/02/12 00:21:18;;;;;;;21.45;14.70;;;;;;;-0.56;100.00;95448.81;5026203;28;20057;-76
2022/02/12 00:23:43;;;;;;;22.55;15.38;;;;;;;-0.48;100.00;95443.25;5024740;28;20028;-76
2022/02/12 00:26:09;;;;;;;15.68;10.77;;;;;;;-0.35;100.00;95451.00;5025904;28;20026;-76
2022/02/12 00:28:34;;;;;;;23.73;15.88;;;;;;;-0.14;100.00;95447.13;5027730;28;20063;-76
2022/02/12 00:31:00;;;;;;;21.00;12.60;;;;;;;-0.26;100.00;95441.06;5029782;28;20033;-76
2022/02/12 00:33:25;;;;;;;18.92;10.70;;;;;;;-0.40;100.00;95446.16;5029476;28;20105;-76
2022/02/12 00:35:50;;;;;;;21.35;11.40;;;;;;;-0.40;100.00;95446.16;5029223;28;20029;-76
2022/02/12 00:38:16;;;;;;;16.33;10.27;;;;;;;-0.54;100.00;95436.81;5031200;28;20020;-75
2022/02/12 00:40:41;;;;;;;13.85;10.00;;;;;;;-0.58;100.00;95453.16;5029767;28;20021;-75
2022/02/12 00:43:07;;;;;;;17.45;9.65;;;;;;;-0.42;100.00;95459.91;5029438;28;20041;-76
2022/02/12 00:45:32;;;;;;;14.30;9.95;;;;;;;-0.68;100.00;95457.19;5027929;28;20037;-76
2022/02/12 00:47:58;;;;;;;14.77;9.55;;;;;;;-0.45;100.00;95457.53;5029722;28;20410;-76
2022/02/12 00:50:23;;;;;;;15.63;10.20;;;;;;;-0.49;100.00;95456.06;5028045;28;20029;-76
2022/02/12 00:52:49;;;;;;;15.18;9.60;;;;;;;-0.54;100.00;95454.63;5030818;28;20025;-76
2022/02/12 00:55:14;;;;;;;15.20;11.10;;;;;;;-0.56;100.00;95448.81;5028710;28;20033;-75
2022/02/12 00:57:40;;;;;;;17.55;11.05;;;;;;;-0.52;100.00;95462.19;5028606;28;20036;-76
2022/02/12 01:00:06;;;;;;;16.52;10.43;;;;;;;-0.57;100.00;95467.53;5029778;28;20120;-76
2022/02/12 01:02:31;;;;;;;18.95;11.43;;;;;;;-0.42;100.00;95464.97;5011225;28;20021;-76
2022/02/12 01:04:57;;;;;;;16.40;10.27;;;;;;;-0.45;100.00;95449.91;5029410;28;20402;-76
2022/02/12 01:07:22;;;;;;;13.73;8.85;;;;;;;-0.47;100.00;95466.97;5028772;28;20030;-76
2022/02/12 01:09:48;;;;;;;14.20;9.70;;;;;;;-0.51;100.00;95476.50;5030643;28;20033;-76
2022/02/12 01:12:13;;;;;;;13.57;10.07;;;;;;;-0.46;100.00;95484.69;5027919;28;20394;-76
2022/02/12 01:14:39;;;;;;;14.95;10.73;;;;;;;-0.52;100.00;95489.31;5028773;28;20021;-75
2022/02/12 01:17:04;;;;;;;13.68;9.80;;;;;;;-0.51;100.00;95483.34;5030504;28;20025;-75
2022/02/12 01:19:29;;;;;;;16.10;12.02;;;;;;;-0.85;100.00;95489.56;5027781;28;20098;-76
2022/02/12 01:21:55;;;;;;;15.68;11.13;;;;;;;-1.15;100.00;95489.59;5012588;28;20112;-75
2022/02/12 01:24:20;;;;;;;15.05;10.27;;;;;;;-1.36;100.00;95495.91;5027187;28;20030;-76
2022/02/12 01:26:46;;;;;;;13.90;9.95;;;;;;;-0.97;100.00;95505.53;5028810;28;20026;-75
2022/02/12 01:29:11;;;;;;;12.75;9.88;;;;;;;-1.11;100.00;95504.59;5011034;28;20026;-75
2022/02/12 01:31:37;;;;;;;16.50;10.82;;;;;;;-1.01;100.00;95504.88;5028598;28;20033;-75
2022/02/12 01:34:02;;;;;;;17.25;10.02;;;;;;;-0.93;100.00;95495.09;5027942;28;20026;-75
2022/02/12 01:36:28;;;;;;;14.38;10.52;;;;;;;-0.83;100.00;95501.28;5029203;28;20395;-76
2022/02/12 01:38:53;;;;;;;16.15;10.13;;;;;;;-0.77;100.00;95506.00;5029066;28;20041;-76
2022/02/12 01:41:18;;;;;;;17.65;9.73;;;;;;;-0.95;100.00;95508.78;5027929;28;20065;-75
2022/02/12 01:43:44;;;;;;;15.60;11.10;;;;;;;-0.93;100.00;95512.88;5028722;28;20021;-76
2022/02/12 01:46:10;;;;;;;18.02;11.48;;;;;;;-0.83;100.00;95508.06;5028220;28;20079;-75
2022/02/12 01:48:35;;;;;;;17.45;12.05;;;;;;;-0.81;100.00;95517.28;5029541;28;20033;-75
2022/02/12 01:51:02;;;;;;;17.55;11.68;;;;;;;-0.77;100.00;95512.84;5027061;28;20407;-75
2022/02/12 01:53:28;;;;;;;16.52;11.10;;;;;;;-0.84;100.00;95517.44;5028146;28;20049;-75
2022/02/12 01:55:56;;;;;;;15.65;11.23;;;;;;;-1.14;100.00;95511.56;5028024;28;20119;-75
2022/02/12 01:58:22;;;;;;;18.23;11.65;;;;;;;-1.43;100.00;95490.34;5026942;28;20025;-75
2022/02/12 02:00:47;;;;;;;16.77;11.77;;;;;;;-1.46;100.00;95522.69;5029734;28;20022;-75
2022/02/12 02:03:13;;;;;;;18.02;12.25;;;;;;;-1.16;100.00;95521.81;5026775;28;20022;-75
2022/02/12 02:05:39;;;;;;;18.38;12.07;;;;;;;-1.14;100.00;95524.25;5011572;28;20030;-75
2022/02/12 02:08:05;;;;;;;20.48;14.55;;;;;;;-1.14;100.00;95524.25;5026359;28;20033;-75
2022/02/12 02:10:30;;;;;;;20.67;12.80;;;;;;;-1.01;100.00;95535.38;5028169;28;20025;-75
2022/02/12 02:12:56;;;;;;;22.63;12.80;;;;;;;-0.95;100.00;95529.13;5027232;28;20372;-75
2022/02/12 02:15:22;;;;;;;19.20;12.80;;;;;;;-1.03;100.00;95532.13;5027637;28;20045;-76
2022/02/12 02:17:47;;;;;;;22.17;14.32;;;;;;;-1.00;100.00;95531.94;5027593;28;20064;-75
2022/02/12 02:20:12;;;;;;;29.73;18.48;;;;;;;-0.82;100.00;95530.88;5026933;28;20021;-75
2022/02/12 02:22:48;;;;;;;31.13;18.02;;;;;;;-0.94;100.00;95523.13;5029090;28;20029;-75
2022/02/12 02:25:15;;;;;;;23.90;15.77;;;;;;;-0.88;100.00;95535.50;5026427;28;20037;-74
2022/02/12 02:27:40;;;;;;;23.75;14.43;;;;;;;-0.87;100.00;95539.69;5028631;28;20124;-75
2022/02/12 02:30:11;;;;;;;24.17;14.48;;;;;;;-0.94;100.00;95541.75;5026772;28;20068;-75
2022/02/12 02:32:37;;;;;;;19.38;13.52;;;;;;;-0.98;100.00;95547.91;5027014;28;20031;-75
2022/02/12 02:35:02;;;;;;;20.05;13.80;;;;;;;-0.89;100.00;95544.00;5029131;28;20021;-75
2022/02/12 02:37:28;;;;;;;26.73;14.38;;;;;;;-0.89;100.00;95547.38;5027237;28;20479;-75
2022/02/12 02:39:53;;;;;;;27.17;14.95;;;;;;;-0.87;100.00;95545.59;5027577;28;20056;-75
2022/02/12 02:42:18;;;;;;;25.80;16.05;;;;;;;-0.93;100.00;95548.44;5025679;28;20099;-75
2022/02/12 02:44:44;;;;;;;23.05;16.00;;;;;;;-0.99;100.00;95548.81;5011142;28;20028;-75
2022/02/12 02:49:54;;;;;;;26.90;16.23;;;;;;;-0.93;100.00;95555.28;5026793;28;20139;-75
2022/02/12 02:57:49;;;;;;;25.27;16.88;;;;;;;-1.02;100.00;95569.31;5027432;28;20124;-75
2022/02/12 03:00:15;;;;;;;23.90;15.10;;;;;;;-0.95;100.00;95570.59;5027453;28;20104;-75
2022/02/12 03:02:40;;;;;;;26.88;15.40;;;;;;;-1.05;100.00;95574.56;5010239;28;20479;-75
2022/02/12 03:05:06;;;;;;;25.60;15.25;;;;;;;-1.09;100.00;95578.97;5028169;28;20100;-74
2022/02/12 03:07:31;;;;;;;24.35;15.02;;;;;;;-1.18;100.00;95582.03;5027270;28;20036;-75
2022/02/12 03:09:57;;;;;;;21.75;15.30;;;;;;;-1.39;100.00;95579.88;5026993;28;20022;-75
2022/02/12 03:12:22;;;;;;;25.27;15.65;;;;;;;-1.29;100.00;95581.00;5008996;28;20025;-75
2022/02/12 03:14:47;;;;;;;25.73;16.52;;;;;;;-1.24;100.00;95576.47;5027061;28;20048;-75
2022/02/12 03:17:13;;;;;;;26.60;16.50;;;;;;;-1.24;100.00;95572.22;5026802;28;20399;-74
2022/02/12 03:19:38;;;;;;;29.73;18.58;;;;;;;-1.12;100.00;95578.34;5026827;28;20033;-75
2022/02/12 03:22:04;;;;;;;27.60;18.05;;;;;;;-1.11;100.00;95568.09;5025780;28;20032;-75
2022/02/12 03:24:29;;;;;;;26.92;17.73;;;;;;;-1.19;100.00;95582.13;5027928;28;20103;-75
2022/02/12 03:26:55;;;;;;;25.48;16.83;;;;;;;-1.24;100.00;95573.94;5027845;28;20029;-74
2022/02/12 03:29:22;;;;;;;28.67;16.90;;;;;;;-1.27;100.00;95585.09;5026642;28;20032;-74
2022/02/12 03:31:47;;;;;;;25.92;15.93;;;;;;;-1.22;100.00;95595.00;5028025;28;20490;-75
2022/02/12 03:34:13;;;;;;;24.92;15.85;;;;;;;-1.19;100.00;95602.47;5025288;28;20032;-75
2022/02/12 03:36:38;;;;;;;24.30;16.55;;;;;;;-1.24;100.00;95595.09;5028196;28;20018;-75
2022/02/12 03:39:04;;;;;;;27.73;15.77;;;;;;;-1.26;100.00;95603.69;5026190;28;20474;-75
2022/02/12 03:41:29;;;;;;;24.77;17.13;;;;;;;-1.30;100.00;95612.38;5026487;28;20510;-75
2022/02/12 03:43:55;;;;;;;25.60;16.88;;;;;;;-1.34;100.00;95605.81;5026030;28;20017;-75
2022/02/12 03:46:20;;;;;;;24.15;15.32;;;;;;;-1.16;100.00;95612.47;5027046;28;20046;-75
2022/02/12 03:48:45;;;;;;;25.20;16.00;;;;;;;-1.32;100.00;95611.66;5027934;28;20148;-74
2022/02/12 03:51:11;;;;;;;27.88;17.50;;;;;;;-1.41;100.00;95614.69;5024769;28;20129;-75
2022/02/12 03:53:36;;;;;;;24.10;17.13;;;;;;;-1.44;100.00;95610.56;5028259;28;20379;-75
2022/02/12 03:56:02;;;;;;;27.42;16.30;;;;;;;-1.43;100.00;95616.47;5024906;28;20048;-75
2022/02/12 03:58:27;;;;;;;26.52;16.92;;;;;;;-1.35;100.00;95621.97;5026733;28;20090;-74
2022/02/12 04:00:53;;;;;;;26.08;16.20;;;;;;;-1.31;100.00;95621.72;5026651;28;20040;-75
2022/02/12 04:03:18;;;;;;;24.50;17.15;;;;;;;-1.17;100.00;95624.34;5028834;28;20025;-74
2022/02/12 04:05:44;;;;;;;25.92;17.42;;;;;;;-1.35;100.00;95621.97;5030193;28;20037;-75
2022/02/12 04:08:10;;;;;;;26.02;16.73;;;;;;;-1.26;100.00;95636.72;5030318;28;20044;-75
2022/02/12 04:10:35;;;;;;;29.13;17.17;;;;;;;-1.35;100.00;95632.94;5013802;28;20030;-75
2022/02/12 04:13:01;;;;;;;25.45;18.38;;;;;;;-1.22;100.00;95636.44;5029968;28;20029;-74
2022/02/12 04:15:28;;;;;;;30.92;18.80;;;;;;;-1.30;100.00;95633.53;5030455;28;20490;-75
2022/02/12 04:17:53;;;;;;;27.30;17.92;;;;;;;-1.33;100.00;95636.22;5028460;28;20490;-75
2022/02/12 04:20:22;;;;;;;28.52;18.40;;;;;;;-1.29;100.00;95640.25;5030095;28;20033;-75
2022/02/12 04:22:48;;;;;;;33.30;17.42;;;;;;;-1.11;100.00;95646.84;5029641;28;20572;-75
2022/02/12 04:25:19;;;;;;;29.02;17.60;;;;;;;-1.29;100.00;95672.44;5029279;28;20025;-75
2022/02/12 04:27:44;;;;;;;29.45;17.27;;;;;;;-1.22;100.00;95673.75;5031286;28;20037;-75
2022/02/12 04:30:12;;;;;;;24.13;16.88;;;;;;;-1.39;100.00;95667.03;5028080;28;20117;-75
2022/02/12 04:32:38;;;;;;;29.27;18.42;;;;;;;-1.35;100.00;95688.00;5030149;28;20398;-75
2022/02/12 04:35:04;;;;;;;54.92;33.35;;;;;;;-1.29;100.00;95687.69;5028382;28;20066;-74
2022/02/12 04:37:31;;;;;;;50.00;28.60;;;;;;;-1.28;100.00;95691.84;5029913;28;20073;-74
2022/02/12 04:39:57;;;;;;;36.03;22.15;;;;;;;-1.22;100.00;95701.69;5028883;28;20092;-75
2022/02/12 04:42:22;;;;;;;35.65;20.83;;;;;;;-1.22;100.00;95697.41;5029873;28;20053;-75
2022/02/12 04:44:50;;;;;;;29.65;18.15;;;;;;;-1.03;100.00;95704.91;5029978;28;20073;-75
2022/02/12 04:47:16;;;;;;;26.50;17.00;;;;;;;-1.21;100.00;95713.47;5027780;28;20032;-75
2022/02/12 04:49:42;;;;;;;36.55;20.60;;;;;;;-1.77;100.00;95704.56;5029735;28;20029;-75
2022/02/12 04:52:11;;;;;;;29.45;19.60;;;;;;;-1.47;100.00;95712.31;5027806;28;20040;-75
2022/02/12 04:54:37;;;;;;;31.20;17.58;;;;;;;-1.35;100.00;95724.34;5029816;28;20030;-75
2022/02/12 04:57:02;;;;;;;28.25;17.73;;;;;;;-1.22;100.00;95724.56;5011345;28;20119;-74
2022/02/12 04:59:28;;;;;;;33.45;19.88;;;;;;;-1.16;100.00;95729.31;5029278;28;20124;-75
2022/02/12 05:01:53;;;;;;;26.92;17.60;;;;;;;-1.00;100.00;95735.22;5012272;28;20029;-76
2022/02/12 05:04:20;;;;;;;26.77;18.23;;;;;;;-1.11;100.00;95728.16;5028189;28;20033;-75
2022/02/12 05:06:46;;;;;;;26.65;18.05;;;;;;;-1.15;100.00;95738.56;5029180;28;20017;-75
2022/02/12 05:09:12;;;;;;;27.52;17.25;;;;;;;-1.12;100.00;95741.75;5027609;28;20025;-75
2022/02/12 05:11:38;;;;;;;24.13;16.67;;;;;;;-0.97;100.00;95752.84;5029419;28;20501;-75
2022/02/12 05:14:04;;;;;;;26.35;17.23;;;;;;;-0.89;100.00;95755.78;5027755;28;20234;-75
2022/02/12 05:16:29;;;;;;;32.78;20.42;;;;;;;-0.91;100.00;95749.97;5028892;28;20105;-75
2022/02/12 05:18:55;;;;;;;36.85;23.02;;;;;;;-0.79;100.00;95761.19;5028218;28;20475;-75
2022/02/12 05:21:20;;;;;;;47.53;26.38;;;;;;;-0.46;100.00;95773.81;5029475;28;20048;-75
2022/02/12 05:23:46;;;;;;;45.65;25.48;;;;;;;-0.48;100.00;95768.00;5029318;28;20033;-75
2022/02/12 05:26:11;;;;;;;37.63;23.77;;;;;;;-0.56;100.00;95774.31;5027249;28;20021;-75
2022/02/12 05:28:37;;;;;;;43.92;25.92;;;;;;;-0.75;100.00;95776.22;5030196;28;20025;-75
2022/02/12 05:31:02;;;;;;;40.53;24.98;;;;;;;-0.95;100.00;95783.25;5027204;28;20029;-75
2022/02/12 05:33:28;;;;;;;40.45;25.20;;;;;;;-0.90;100.00;95786.38;5030121;28;20022;-75
2022/02/12 05:35:53;;;;;;;40.80;25.90;;;;;;;-0.71;100.00;95787.03;5027545;28;20026;-75
2022/02/12 05:38:19;;;;;;;46.13;27.85;;;;;;;-0.72;100.00;95785.38;5028513;28;20021;-75
2022/02/12 05:40:44;;;;;;;56.22;29.83;;;;;;;-0.72;100.00;95785.38;5029518;28;20029;-75
2022/02/12 05:43:09;;;;;;;57.38;32.42;;;;;;;-0.54;100.00;95785.22;5029174;28;20521;-75
2022/02/12 05:45:35;;;;;;;40.97;25.08;;;;;;;-0.51;100.00;95779.13;5028327;28;20482;-75
2022/02/12 05:48:00;;;;;;;38.35;24.20;;;;;;;-0.33;100.00;95792.59;5010680;28;20018;-75
2022/02/12 05:50:28;;;;;;;44.38;25.45;;;;;;;-0.26;100.00;95786.25;5028594;28;20403;-74
2022/02/12 05:52:55;;;;;;;49.10;28.17;;;;;;;-0.10;100.00;95792.94;5008235;28;20425;-75
2022/02/12 05:55:20;;;;;;;53.85;30.33;;;;;;;-0.09;100.00;95796.31;5026810;28;20040;-75
2022/02/12 05:57:45;;;;;;;36.72;23.40;;;;;;;-0.42;100.00;95795.63;5025785;28;20518;-75
2022/02/12 06:00:11;;;;;;;37.92;25.60;;;;;;;-0.43;100.00;95819.41;5026319;28;20027;-75
2022/02/12 06:02:37;;;;;;;33.45;22.45;;;;;;;-0.39;100.00;95810.72;5026599;28;20521;-74
2022/02/12 06:05:03;;;;;;;27.35;17.80;;;;;;;-0.61;100.00;95818.72;5026812;28;20025;-75
2022/02/12 06:07:28;;;;;;;32.88;19.80;;;;;;;-0.56;100.00;95829.44;5026191;28;20064;-75
2022/02/12 06:09:54;;;;;;;31.00;20.00;;;;;;;-0.17;100.00;95832.38;5026727;28;20036;-75
2022/02/12 06:12:19;;;;;;;34.95;23.35;;;;;;;-0.42;100.00;95821.06;5026631;28;20029;-75
2022/02/12 06:14:44;;;;;;;44.42;28.00;;;;;;;-0.22;100.00;95836.06;5026237;28;20017;-75
2022/02/12 06:17:10;;;;;;;43.95;30.05;;;;;;;0.00;100.00;95839.09;5026356;28;20482;-75
2022/02/12 06:19:35;;;;;;;36.80;24.85;;;;;;;0.17;100.00;95844.03;5025742;28;20459;-75
2022/02/12 06:22:01;;;;;;;39.67;25.35;;;;;;;0.38;100.00;95847.94;5025246;28;20035;-75
2022/02/12 06:24:26;;;;;;;46.35;28.60;;;;;;;0.57;100.00;95846.88;5027394;28;20494;-75
2022/02/12 06:26:56;;;;;;;43.08;25.80;;;;;;;0.69;100.00;95843.59;5023918;28;20041;-76
2022/02/12 06:29:22;;;;;;;37.47;25.38;;;;;;;0.79;100.00;95848.09;5027789;28;20044;-75
2022/02/12 06:31:48;;;;;;;40.78;26.20;;;;;;;0.99;100.00;95845.19;5007684;28;20532;-75
2022/02/12 06:34:14;;;;;;;52.13;31.02;;;;;;;1.13;100.00;95852.00;5025912;28;20029;-75
2022/02/12 06:36:39;;;;;;;55.30;31.50;;;;;;;1.17;100.00;95845.81;5008164;28;20029;-75
2022/02/12 06:39:05;;;;;;;51.53;35.03;;;;;;;1.29;100.00;95852.72;5025585;28;20025;-75
2022/02/12 06:41:30;;;;;;;49.28;29.30;;;;;;;1.33;100.00;95853.38;5025303;28;20442;-74
2022/02/12 06:43:56;;;;;;;43.15;26.73;;;;;;;1.49;100.00;95847.25;5024347;28;20052;-75
2022/02/12 06:46:22;;;;;;;47.53;29.20;;;;;;;1.45;100.00;95847.50;5024844;28;20112;-75
2022/02/12 06:48:47;;;;;;;58.40;36.45;;;;;;;1.51;100.00;95849.69;5022558;28;20605;-75
2022/02/12 06:51:15;;;;;;;42.60;26.05;;;;;;;1.67;100.00;95854.69;5026189;28;20021;-75
2022/02/12 06:53:41;;;;;;;55.50;34.20;;;;;;;1.81;100.00;95847.81;5023832;28;20041;-75
2022/02/12 06:56:07;;;;;;;78.35;42.90;;;;;;;2.01;100.00;95851.66;5025868;28;20033;-75
2022/02/12 06:58:32;;;;;;;89.90;52.28;;;;;;;2.02;100.00;95849.00;5023528;28;20487;-74
2022/02/12 07:00:58;;;;;;;60.92;36.42;;;;;;;2.08;100.00;95853.75;5024871;28;20021;-75
2022/02/12 07:03:23;;;;;;;58.15;35.97;;;;;;;2.26;100.00;95856.03;5026067;28;20387;-75
2022/02/12 07:05:48;;;;;;;51.65;34.30;;;;;;;2.39;100.00;95856.88;5021716;28;20059;-75
2022/02/12 07:08:14;;;;;;;53.03;35.28;;;;;;;2.41;100.00;95871.19;5025991;28;20447;-75
2022/02/12 07:10:39;;;;;;;52.55;35.03;;;;;;;2.72;100.00;95869.22;5022258;28;20025;-75
2022/02/12 07:13:05;;;;;;;63.25;35.63;;;;;;;2.75;100.00;95869.84;5024369;28;20510;-75
2022/02/12 07:15:30;;;;;;;56.15;35.17;;;;;;;2.84;100.00;95876.06;5024363;28;20049;-75
2022/02/12 07:17:56;;;;;;;52.00;35.90;;;;;;;2.80;100.00;95884.88;5024853;28;20188;-75
2022/02/12 07:20:21;;;;;;;47.92;32.83;;;;;;;3.11;100.00;95881.94;5024097;28;20459;-75
2022/02/12 07:22:47;;;;;;;50.92;34.38;;;;;;;2.85;100.00;95887.94;5022644;28;20021;-75
2022/02/12 07:25:13;;;;;;;49.78;33.30;;;;;;;3.16;100.00;95872.19;5024779;28;20100;-75
2022/02/12 07:27:39;;;;;;;47.03;30.95;;;;;;;3.34;100.00;95881.19;5020976;28;20029;-75
2022/02/12 07:30:06;;;;;;;49.72;30.20;;;;;;;3.47;100.00;95887.13;5025268;28;20025;-75
2022/02/12 07:32:33;;;;;;;44.17;28.25;;;;;;;2.94;100.00;95864.31;5021999;28;20037;-75
2022/02/12 07:34:58;;;;;;;45.25;30.23;;;;;;;3.17;100.00;95890.03;5025556;28;20399;-76
2022/02/12 07:37:23;;;;;;;40.88;30.55;;;;;;;3.25;100.00;95893.78;5024470;28;20024;-75
2022/02/12 07:39:49;;;;;;;44.72;32.03;;;;;;;3.49;100.00;95898.09;5027364;28;20482;-75
2022/02/12 07:42:14;;;;;;;38.35;29.15;;;;;;;4.00;100.00;95903.09;5029286;28;20455;-75
2022/02/12 07:44:40;;;;;;;47.17;32.53;;;;;;;3.41;100.00;95895.22;5026199;28;20547;-75
2022/02/12 07:47:05;;;;;;;45.38;33.63;;;;;;;3.90;100.00;95900.34;5029171;28;20030;-75
2022/02/12 07:49:31;;;;;;;43.25;31.42;;;;;;;4.17;100.00;95895.03;5027704;28;20056;-75
2022/02/12 07:51:56;;;;;;;42.03;31.08;;;;;;;4.78;100.00;95907.63;5029236;28;20478;-75
2022/02/12 07:54:21;;;;;;;50.63;36.00;;;;;;;4.77;100.00;95893.19;5026439;28;20026;-75
2022/02/12 07:56:49;;;;;;;53.35;34.35;;;;;;;5.60;100.00;95888.63;5028774;28;20593;-75
2022/02/12 07:59:14;;;;;;;49.05;36.13;;;;;;;6.22;99.20;95888.94;5028900;28;20026;-75
2022/02/12 08:01:40;;;;;;;41.17;30.98;;;;;;;6.40;94.93;95896.94;5027607;28;20021;-75
2022/02/12 08:04:05;;;;;;;44.42;30.50;;;;;;;6.34;96.60;95895.69;5027826;28;20057;-75
2022/02/12 08:09:14;;;;;;;38.55;28.70;;;;;;;6.25;97.16;95905.88;5028254;28;20675;-75
2022/02/12 08:11:42;;;;;;;38.85;29.73;;;;;;;5.60;99.42;95895.53;5025677;28;20049;-75
2022/02/12 08:14:07;;;;;;;41.47;29.27;;;;;;;7.70;93.56;95898.22;5027378;28;20410;-75
2022/02/12 08:16:33;;;;;;;36.42;29.52;;;;;;;10.72;68.25;95886.97;5027105;28;20026;-75
2022/02/12 08:18:58;;;;;;;35.65;26.30;;;;;;;12.16;63.77;95886.31;5027058;28;20028;-75
2022/02/12 08:21:24;;;;;;;34.03;26.98;;;;;;;12.65;57.35;95885.44;5028975;28;20058;-75
2022/02/12 08:23:49;;;;;;;30.83;24.60;;;;;;;12.19;58.22;95893.78;5025362;28;20508;-75
2022/02/12 08:26:15;;;;;;;30.30;25.52;;;;;;;12.48;56.88;95890.78;5010606;28;20036;-75
2022/02/12 08:28:41;;;;;;;29.13;24.33;;;;;;;12.00;58.52;95896.63;5025242;28;20411;-75
2022/02/12 08:31:07;;;;;;;33.13;25.70;;;;;;;12.02;58.30;95899.88;5027340;28;20100;-75
2022/02/12 08:33:32;;;;;;;31.85;25.55;;;;;;;11.75;59.41;95900.88;5028119;28;20143;-75
2022/02/12 08:35:57;;;;;;;35.30;26.00;;;;;;;10.98;63.28;95898.22;5026406;28;20078;-75
2022/02/12 08:38:23;;;;;;;29.92;23.65;;;;;;;12.34;57.42;95889.59;5027037;28;20025;-75
2022/02/12 08:40:48;;;;;;;30.73;25.35;;;;;;;12.90;53.60;95875.91;5025180;28;20029;-76
2022/02/12 08:43:14;;;;;;;30.27;23.10;;;;;;;13.83;51.61;95894.53;5028254;28;20044;-75
2022/02/12 08:45:40;;;;;;;31.10;24.10;;;;;;;15.36;48.29;95900.66;5008462;28;20042;-75
2022/02/12 08:48:09;;;;;;;32.60;25.25;;;;;;;13.36;53.34;95899.63;5009831;28;20495;-76
2022/02/12 08:50:37;;;;;;;27.83;23.57;;;;;;;14.64;50.13;95900.22;5030078;28;20049;-79
2022/02/12 08:53:03;;;;;;;33.42;23.00;;;;;;;14.42;49.79;95899.19;5034291;28;20280;-79
2022/02/12 08:55:28;;;;;;;30.50;23.70;;;;;;;15.05;48.76;95898.97;5050821;28;20100;-80
2022/02/12 08:57:54;;;;;;;27.42;24.55;;;;;;;15.03;48.24;95898.31;5041877;28;20479;-81
2022/02/12 09:00:21;;;;;;;25.58;22.88;;;;;;;16.14;46.51;95888.81;5043787;28;20032;-84
2022/02/12 09:02:46;;;;;;;28.40;23.13;;;;;;;14.98;47.57;95887.59;5028054;28;20021;-81
2022/02/12 09:05:12;;;;;;;26.98;22.73;;;;;;;16.37;44.54;95880.03;5027112;28;20490;-84
2022/02/12 09:07:37;;;;;;;25.90;21.98;;;;;;;16.12;45.05;95882.09;5026409;28;20034;-83
2022/02/12 09:10:05;;;;;;;27.83;22.83;;;;;;;15.99;46.38;95890.59;5008336;28;20017;-84
2022/02/12 09:12:31;;;;;;;24.60;21.95;;;;;;;16.27;45.88;95893.38;5028534;28;20047;-84
2022/02/12 09:14:56;;;;;;;24.50;19.75;;;;;;;14.19;49.22;95883.47;5030905;28;20089;-81
2022/02/12 09:17:22;;;;;;;22.88;18.98;;;;;;;16.00;45.63;95891.41;5042391;28;20030;-83
2022/02/12 09:19:47;;;;;;;26.90;20.33;;;;;;;15.45;47.11;95889.16;5025448;28;20083;-84
2022/02/12 09:22:13;;;;;;;24.60;18.48;;;;;;;16.01;44.90;95890.44;5008439;28;20025;-83
2022/02/12 09:24:38;;;;;;;23.73;19.23;;;;;;;16.78;44.38;95887.16;5026328;28;20028;-83
2022/02/12 09:27:04;;;;;;;21.95;19.70;;;;;;;17.62;42.15;95882.91;5024788;28;20065;-83
2022/02/12 09:29:29;;;;;;;24.77;19.00;;;;;;;15.68;45.05;95876.91;5026092;28;20022;-84
2022/02/12 09:31:55;;;;;;;18.83;16.48;;;;;;;17.77;41.33;95885.41;5025905;28;20495;-81
2022/02/12 09:34:21;;;;;;;22.80;18.60;;;;;;;15.56;45.77;95889.59;5025986;28;20034;-74
2022/02/12 09:36:46;;;;;;;19.42;15.70;;;;;;;16.02;45.02;95886.81;5023848;28;20084;-74
2022/02/12 09:39:12;;;;;;;13.48;12.05;;;;;;;15.27;44.57;95885.09;5025172;28;20080;-73
2022/02/12 09:41:37;;;;;;;11.57;10.40;;;;;;;14.37;46.22;95880.66;5026622;28;20088;-75
2022/02/12 09:44:03;;;;;;;11.15;9.95;;;;;;;16.50;43.27;95881.00;5024650;28;20025;-74
2022/02/12 09:46:32;;;;;;;11.70;9.52;;;;;;;15.65;44.14;95885.09;5025743;28;20466;-74
2022/02/12 09:48:58;;;;;;;10.70;9.70;;;;;;;16.64;42.75;95880.16;5025590;28;20025;-75
2022/02/12 09:51:25;;;;;;;11.65;9.60;;;;;;;16.49;41.60;95875.94;5025437;28;20502;-75
2022/02/12 09:53:51;;;;;;;10.98;9.95;;;;;;;15.51;44.40;95868.41;5025381;28;20120;-74
2022/02/12 09:56:17;;;;;;;15.85;9.65;;;;;;;16.67;42.43;95871.13;5025951;28;20026;-74
2022/02/12 09:58:42;;;;;;;14.68;9.70;;;;;;;15.52;44.47;95864.81;5018989;28;20481;-75
2022/02/12 10:01:08;;;;;;;15.60;10.45;;;;;;;15.76;44.08;95861.94;5018490;28;20029;-74
2022/02/12 10:03:34;;;;;;;10.70;9.63;;;;;;;16.06;42.62;95857.53;5028287;28;20029;-75
2022/02/12 10:05:59;;;;;;;10.55;9.45;;;;;;;15.96;43.44;95859.59;5025052;28;20038;-74
2022/02/12 10:08:25;;;;;;;12.90;10.25;;;;;;;15.53;44.98;95849.97;5027030;28;20022;-74
2022/02/12 10:10:51;;;;;;;11.13;9.70;;;;;;;14.88;45.91;95850.50;5025417;28;20036;-74
2022/02/12 10:13:20;;;;;;;11.50;10.32;;;;;;;15.56;44.62;95850.41;5026700;28;20025;-75
2022/02/12 10:15:54;;;;;;;11.15;10.15;;;;;;;16.24;43.78;95844.09;5027095;28;20746;-75
2022/02/12 10:18:24;;;;;;;14.38;9.10;;;;;;;16.78;42.77;95854.94;5025952;28;20521;-75
2022/02/12 10:20:53;;;;;;;12.10;9.65;;;;;;;16.68;42.12;95862.28;5027764;28;20030;-75
2022/02/12 10:23:24;;;;;;;11.70;10.10;;;;;;;15.47;43.99;95861.09;5025149;28;20024;-75
2022/02/12 10:26:02;;;;;;;9.98;8.82;;;;;;;15.96;42.81;95856.97;5026713;28;20029;-74
2022/02/12 10:28:33;;;;;;;10.63;9.32;;;;;;;14.66;45.33;95859.13;5026760;28;20022;-75
2022/02/12 10:30:59;;;;;;;9.82;9.02;;;;;;;16.20;43.49;95854.09;5009532;28;20471;-75
2022/02/12 10:33:26;;;;;;;10.75;9.77;;;;;;;15.77;43.71;95850.50;5025995;28;20022;-75
2022/02/12 10:35:56;;;;;;;10.25;9.18;;;;;;;12.33;50.56;95863.78;5025333;28;20025;-75
2022/02/12 10:38:25;;;;;;;10.93;9.73;;;;;;;12.34;52.68;95857.59;5026758;28;20076;-74
2022/02/12 10:41:13;;;;;;;13.57;9.50;;;;;;;11.83;55.05;95853.38;5024408;28;20041;-75
2022/02/12 10:43:45;;;;;;;10.32;9.18;;;;;;;11.99;55.73;95849.06;5025135;28;20558;-75
2022/02/12 10:46:11;;;;;;;10.88;9.77;;;;;;;11.99;54.06;95840.47;5024584;28;20491;-75
2022/02/12 10:48:40;;;;;;;13.15;8.77;;;;;;;11.59;55.23;95843.69;5025362;28;20443;-74
2022/02/12 10:51:11;;;;;;;10.48;9.55;;;;;;;11.20;57.18;95837.28;5025239;28;20028;-75
2022/02/12 10:54:02;;;;;;;11.23;10.07;;;;;;;11.16;57.83;95834.19;5023104;28;20030;-75
2022/02/12 10:56:45;;;;;;;10.23;9.18;;;;;;;10.95;59.04;95831.94;5026537;28;20101;-74
2022/02/12 10:59:12;;;;;;;10.57;8.60;;;;;;;11.22;57.53;95824.97;5026095;28;20029;-75
2022/02/12 11:01:38;;;;;;;10.32;9.27;;;;;;;10.86;57.98;95821.66;5023677;28;20116;-74
2022/02/12 11:04:03;;;;;;;13.73;9.05;;;;;;;11.68;56.55;95823.78;5026362;28;20174;-75
2022/02/12 11:06:29;;;;;;;16.08;9.45;;;;;;;11.09;57.46;95822.78;5023162;28;20017;-74
2022/02/12 11:08:55;;;;;;;10.35;9.27;;;;;;;10.91;58.50;95814.25;5025033;28;20560;-75
2022/02/12 11:11:20;;;;;;;10.70;9.18;;;;;;;11.06;57.49;95816.16;5024437;28;20469;-74
2022/02/12 11:13:46;;;;;;;13.63;8.98;;;;;;;11.39;58.52;95805.97;5008463;28;20084;-74
2022/02/12 11:16:11;;;;;;;8.68;7.80;;;;;;;10.80;59.39;95797.16;5023587;28;20494;-75
2022/02/12 11:18:39;;;;;;;11.20;8.75;;;;;;;11.20;58.75;95803.59;5025412;28;20033;-74
2022/02/12 11:21:05;;;;;;;9.85;8.27;;;;;;;11.05;60.90;95809.31;5024600;28;20036;-75